createdAt,value
2022-11-15T00:02:24.785Z,78.28
2022-11-15T00:05:14.574Z,78.43
2022-11-15T00:08:04.008Z,78.45
2022-11-15T00:11:04.178Z,78.22
2022-11-15T00:13:53.594Z,78.55
2022-11-15T00:16:43.187Z,78.59
2022-11-15T00:19:33.046Z,78.77
2022-11-15T00:22:22.325Z,78.83
2022-11-15T00:25:12.123Z,78.93
2022-11-15T00:28:02.504Z,79.06
2022-11-15T00:30:51.717Z,79.29
2022-11-15T00:33:40.943Z,78.73
2022-11-15T00:36:30.038Z,78.70
2022-11-15T00:39:19.594Z,79.27
2022-11-15T00:42:08.888Z,79.18
2022-11-15T00:44:58.011Z,79.25
2022-11-15T00:47:49.167Z,79.22
2022-11-15T00:50:38.759Z,79.16
2022-11-15T00:53:28.532Z,79.08
2022-11-15T00:56:18.422Z,79.25
2022-11-15T00:59:07.650Z,79.47
2022-11-15T01:01:57.041Z,79.06
2022-11-15T01:04:46.404Z,79.24
2022-11-15T01:07:36.246Z,79.28
2022-11-15T01:10:26.902Z,78.97
2022-11-15T01:13:16.227Z,79.26
2022-11-15T01:16:11.913Z,78.95
2022-11-15T01:19:01.489Z,78.93
2022-11-15T01:21:52.269Z,79.24
2022-11-15T01:24:41.889Z,79.43
2022-11-15T01:27:31.413Z,79.51
2022-11-15T01:30:21.054Z,79.17
2022-11-15T01:33:10.536Z,79.16
2022-11-15T01:36:00.121Z,79.32
2022-11-15T01:38:49.584Z,79.31
2022-11-15T01:41:39.046Z,79.48
2022-11-15T01:44:49.999Z,79.13
2022-11-15T01:47:42.881Z,78.80
2022-11-15T01:50:34.391Z,78.62
2022-11-15T01:53:27.555Z,78.49
2022-11-15T01:56:19.255Z,78.68
2022-11-15T01:59:10.416Z,78.63
2022-11-15T02:02:00.434Z,78.71
2022-11-15T02:04:50.676Z,78.98
2022-11-15T02:07:40.296Z,78.81
2022-11-15T02:10:30.844Z,78.88
2022-11-15T02:13:21.040Z,79.20
2022-11-15T02:16:22.391Z,78.64
2022-11-15T02:19:27.461Z,78.78
2022-11-15T02:22:33.347Z,79.25
2022-11-15T02:25:41.736Z,79.25
2022-11-15T02:28:47.734Z,79.04
2022-11-15T02:31:43.338Z,78.92
2022-11-15T02:34:46.859Z,78.88
2022-11-15T02:37:44.724Z,79.14
2022-11-15T02:40:41.877Z,79.33
2022-11-15T02:43:53.502Z,79.93
2022-11-15T02:47:05.758Z,79.91
2022-11-15T02:49:59.322Z,79.71
2022-11-15T02:52:51.732Z,79.50
2022-11-15T02:55:45.723Z,79.55
2022-11-15T02:58:54.831Z,79.83
2022-11-15T03:02:02.312Z,79.53
2022-11-15T03:04:58.210Z,79.28
2022-11-15T03:07:59.460Z,80.15
2022-11-15T03:11:05.917Z,79.77
2022-11-15T03:14:01.042Z,80.07
2022-11-15T03:16:59.086Z,79.55
2022-11-15T03:19:52.503Z,79.27
2022-11-15T03:22:45.527Z,79.27
2022-11-15T03:25:37.202Z,79.79
2022-11-15T03:28:32.601Z,79.57
2022-11-15T03:31:47.033Z,79.20
2022-11-15T03:34:43.913Z,79.17
2022-11-15T03:37:39.016Z,79.36
2022-11-15T03:40:35.950Z,79.08
2022-11-15T03:43:32.759Z,78.76
2022-11-15T03:46:29.614Z,78.88
2022-11-15T03:49:25.347Z,79.27
2022-11-15T03:52:15.041Z,79.78
2022-11-15T03:55:06.650Z,79.21
2022-11-15T03:58:00.155Z,79.44
2022-11-15T04:00:49.726Z,79.12
2022-11-15T04:03:39.494Z,79.77
2022-11-15T04:06:29.264Z,79.48
2022-11-15T04:09:18.850Z,79.60
2022-11-15T04:12:08.702Z,79.59
2022-11-15T04:15:09.168Z,79.58
2022-11-15T04:18:00.014Z,79.57
2022-11-15T04:21:06.601Z,79.53
2022-11-15T04:24:14.417Z,79.41
2022-11-15T04:27:03.766Z,79.43
2022-11-15T04:29:53.055Z,79.49
2022-11-15T04:32:42.510Z,79.65
2022-11-15T04:35:32.505Z,79.78
2022-11-15T04:38:21.662Z,79.65
2022-11-15T04:41:10.814Z,79.38
2022-11-15T04:44:00.293Z,79.88
2022-11-15T04:46:49.511Z,79.46
2022-11-15T04:49:38.799Z,79.69
2022-11-15T04:52:28.468Z,79.63
2022-11-15T04:55:17.929Z,79.52
2022-11-15T04:58:07.164Z,79.72
2022-11-15T05:00:56.419Z,79.74
2022-11-15T05:04:04.412Z,79.32
2022-11-15T05:06:54.543Z,79.57
2022-11-15T05:09:43.780Z,79.67
2022-11-15T05:12:33.409Z,80.12
2022-11-15T05:15:22.790Z,79.68
2022-11-15T05:18:12.158Z,79.64
2022-11-15T05:21:07.267Z,79.45
2022-11-15T05:23:56.716Z,79.51
2022-11-15T05:26:45.750Z,79.38
2022-11-15T05:29:35.017Z,79.14
2022-11-15T05:32:25.932Z,79.03
2022-11-15T05:35:20.707Z,78.60
2022-11-15T05:38:10.723Z,78.39
2022-11-15T05:41:01.407Z,77.92
2022-11-15T05:43:52.517Z,78.37
2022-11-15T05:46:43.914Z,78.78
2022-11-15T05:49:38.057Z,78.71
2022-11-15T05:52:31.711Z,78.96
2022-11-15T05:55:22.274Z,79.04
2022-11-15T05:58:12.015Z,79.22
2022-11-15T06:01:01.791Z,79.14
2022-11-15T06:03:51.100Z,79.47
2022-11-15T06:06:40.630Z,79.05
2022-11-15T06:09:29.925Z,78.84
2022-11-15T06:12:19.463Z,78.96
2022-11-15T06:15:10.953Z,79.32
2022-11-15T06:18:01.438Z,79.69
2022-11-15T06:20:50.644Z,79.28
2022-11-15T06:23:39.988Z,79.25
2022-11-15T06:26:29.338Z,79.02
2022-11-15T06:29:18.829Z,78.73
2022-11-15T06:32:09.114Z,78.34
2022-11-15T06:34:58.263Z,78.31
2022-11-15T06:37:48.331Z,78.12
2022-11-15T06:40:39.737Z,78.35
2022-11-15T06:43:29.555Z,77.51
2022-11-15T06:46:18.884Z,77.89
2022-11-15T06:49:09.801Z,78.08
2022-11-15T06:51:59.551Z,77.89
2022-11-15T06:54:49.321Z,78.00
2022-11-15T06:57:38.923Z,78.01
2022-11-15T07:00:28.258Z,77.85
2022-11-15T07:03:17.611Z,78.06
2022-11-15T07:06:08.055Z,77.80
2022-11-15T07:08:57.220Z,77.66
2022-11-15T07:11:46.781Z,77.98
2022-11-15T07:14:36.289Z,77.82
2022-11-15T07:17:25.542Z,77.96
2022-11-15T07:20:15.602Z,78.09
2022-11-15T07:23:06.567Z,78.16
2022-11-15T07:25:55.775Z,78.29
2022-11-15T07:28:45.242Z,78.19
2022-11-15T07:31:34.600Z,77.97
2022-11-15T07:34:24.780Z,77.80
2022-11-15T07:37:14.623Z,77.80
2022-11-15T07:40:04.171Z,78.00
2022-11-15T07:42:56.943Z,78.06
2022-11-15T07:45:47.551Z,77.78
2022-11-15T07:48:44.059Z,77.47
2022-11-15T07:51:34.642Z,77.66
2022-11-15T07:54:24.212Z,78.09
2022-11-15T07:57:13.438Z,77.88
2022-11-15T08:00:02.704Z,77.71
2022-11-15T08:02:52.595Z,77.82
2022-11-15T08:05:43.852Z,77.95
2022-11-15T08:08:33.248Z,77.71
2022-11-15T08:11:22.775Z,78.00
2022-11-15T08:14:12.199Z,78.15
2022-11-15T08:17:01.771Z,78.20
2022-11-15T08:19:51.099Z,78.14
2022-11-15T08:22:40.597Z,77.74
2022-11-15T08:25:32.137Z,78.07
2022-11-15T08:28:22.086Z,77.80
2022-11-15T08:31:18.471Z,77.99
2022-11-15T08:34:08.385Z,78.15
2022-11-15T08:36:57.736Z,77.29
2022-11-15T08:39:47.307Z,77.19
2022-11-15T08:42:36.356Z,77.38
2022-11-15T08:45:25.819Z,77.48
2022-11-15T08:48:15.325Z,76.70
2022-11-15T08:51:04.854Z,77.07
2022-11-15T08:53:54.309Z,77.35
2022-11-15T08:56:43.911Z,77.61
2022-11-15T08:59:33.327Z,77.86
2022-11-15T09:02:22.907Z,77.66
2022-11-15T09:05:12.884Z,77.32
2022-11-15T09:08:06.595Z,77.38
2022-11-15T09:11:06.736Z,77.11
2022-11-15T09:13:56.460Z,76.95
2022-11-15T09:16:45.648Z,77.05
2022-11-15T09:19:35.142Z,77.10
2022-11-15T09:22:24.320Z,76.77
2022-11-15T09:25:14.182Z,76.93
2022-11-15T09:28:07.425Z,76.84
2022-11-15T09:31:00.682Z,76.87
2022-11-15T09:33:49.947Z,76.26
2022-11-15T09:36:39.186Z,76.24
2022-11-15T09:39:28.854Z,76.00
2022-11-15T09:42:46.896Z,75.81
2022-11-15T09:45:45.426Z,75.88
2022-11-15T09:48:58.238Z,75.98
2022-11-15T09:51:47.481Z,75.96
2022-11-15T09:57:23.517Z,76.15
2022-11-15T10:03:10.568Z,76.13
2022-11-15T10:05:43.899Z,76.29
2022-11-15T10:08:53.623Z,76.80
2022-11-15T10:11:37.296Z,76.50
2022-11-15T10:14:15.848Z,76.45
2022-11-15T10:17:15.324Z,76.21
2022-11-15T10:20:05.739Z,76.57
2022-11-15T10:22:41.606Z,76.60
2022-11-15T10:25:20.487Z,76.75
2022-11-15T10:28:03.090Z,77.02
2022-11-15T10:30:39.579Z,76.52
2022-11-15T10:33:26.001Z,76.27
2022-11-15T10:36:25.758Z,76.19
2022-11-15T10:39:00.297Z,76.12
2022-11-15T10:41:40.914Z,76.64
2022-11-15T10:44:25.291Z,76.41
2022-11-15T10:47:26.352Z,76.62
2022-11-15T10:50:09.294Z,76.17
2022-11-15T10:52:47.544Z,75.95
2022-11-15T10:55:28.532Z,75.82
2022-11-15T10:58:04.665Z,75.71
2022-11-15T11:00:37.844Z,75.89
2022-11-15T11:03:28.963Z,75.74
2022-11-15T11:06:13.256Z,75.47
2022-11-15T11:08:54.988Z,75.38
2022-11-15T11:11:26.051Z,74.86
2022-11-15T11:13:56.623Z,74.86
2022-11-15T11:16:51.385Z,75.01
2022-11-15T11:19:40.208Z,74.74
2022-11-15T11:22:20.557Z,74.48
2022-11-15T11:25:05.968Z,74.98
2022-11-15T11:27:45.137Z,74.56
2022-11-15T11:30:20.747Z,74.48
2022-11-15T11:33:23.851Z,74.23
2022-11-15T11:36:06.176Z,74.17
2022-11-15T11:38:56.180Z,74.55
2022-11-15T11:41:49.657Z,74.11
2022-11-15T11:44:31.404Z,74.10
2022-11-15T11:47:05.916Z,74.39
2022-11-15T11:49:44.282Z,74.15
2022-11-15T11:52:18.961Z,73.89
2022-11-15T11:55:05.561Z,74.11
2022-11-15T11:57:45.446Z,74.05
2022-11-15T12:00:23.265Z,73.72
2022-11-15T12:03:07.290Z,73.79
2022-11-15T12:05:42.180Z,73.17
2022-11-15T12:08:24.622Z,72.74
2022-11-15T12:11:02.756Z,72.92
2022-11-15T12:13:37.839Z,72.87
2022-11-15T12:16:13.801Z,73.14
2022-11-15T12:18:50.618Z,73.02
2022-11-15T12:21:31.463Z,72.63
2022-11-15T12:24:06.320Z,72.84
2022-11-15T12:26:42.227Z,72.71
2022-11-15T12:29:22.389Z,72.74
2022-11-15T12:32:00.821Z,72.50
2022-11-15T12:34:42.454Z,72.57
2022-11-15T12:37:48.350Z,72.24
2022-11-15T12:40:31.131Z,72.72
2022-11-15T12:43:05.266Z,72.44
2022-11-15T12:45:37.834Z,71.94
2022-11-15T12:48:43.160Z,72.15
2022-11-15T12:51:13.758Z,72.29
2022-11-15T12:53:44.799Z,72.14
2022-11-15T12:56:34.881Z,72.13
2022-11-15T12:59:08.778Z,72.31
2022-11-15T13:02:03.616Z,72.44
2022-11-15T13:04:34.507Z,72.26
2022-11-15T13:07:08.574Z,72.30
2022-11-15T13:09:57.419Z,72.46
2022-11-15T13:12:54.164Z,72.00
2022-11-15T13:15:47.986Z,71.87
2022-11-15T13:18:39.612Z,71.69
2022-11-15T13:21:41.592Z,71.96
2022-11-15T13:24:21.000Z,72.11
2022-11-15T13:26:53.022Z,72.08
2022-11-15T13:29:23.788Z,72.07
2022-11-15T13:31:56.607Z,72.23
2022-11-15T13:37:35.442Z,72.30
2022-11-15T13:40:31.408Z,71.83
2022-11-15T13:43:16.012Z,71.30
2022-11-15T13:45:46.652Z,71.88
2022-11-15T13:48:17.522Z,71.97
2022-11-15T13:50:48.269Z,72.22
2022-11-15T13:53:19.356Z,72.00
2022-11-15T13:55:50.084Z,71.80
2022-11-15T13:58:24.162Z,71.71
2022-11-15T14:01:03.654Z,71.90
2022-11-15T14:03:36.746Z,71.94
2022-11-15T14:06:12.913Z,72.15
2022-11-15T14:08:44.754Z,71.89
2022-11-15T14:11:20.440Z,72.06
2022-11-15T14:14:13.111Z,71.90
2022-11-15T14:16:45.483Z,72.25
2022-11-15T14:19:40.538Z,72.42
2022-11-15T14:22:21.474Z,71.82
2022-11-15T14:25:17.475Z,71.72
2022-11-15T14:28:08.820Z,72.11
2022-11-15T14:30:40.165Z,72.58
2022-11-15T14:33:24.225Z,72.74
2022-11-15T14:35:56.381Z,72.70
2022-11-15T14:38:27.374Z,72.66
2022-11-15T14:41:02.331Z,73.04
2022-11-15T14:43:34.558Z,73.04
2022-11-15T14:46:05.629Z,72.92
2022-11-15T14:48:36.319Z,72.76
2022-11-15T14:51:11.395Z,72.91
2022-11-15T14:53:42.284Z,72.81
2022-11-15T14:56:13.069Z,72.88
2022-11-15T14:58:49.882Z,72.78
2022-11-15T15:01:26.087Z,72.63
2022-11-15T15:03:59.269Z,72.75
2022-11-15T15:06:31.674Z,72.82
2022-11-15T15:09:02.388Z,72.48
2022-11-15T15:11:33.969Z,72.27
2022-11-15T15:14:04.578Z,72.18
2022-11-15T15:16:35.188Z,72.17
2022-11-15T15:19:05.775Z,71.87
2022-11-15T15:21:37.670Z,71.95
2022-11-15T15:24:10.762Z,72.08
2022-11-15T15:26:41.736Z,72.35
2022-11-15T15:29:12.438Z,72.24
2022-11-15T15:31:43.067Z,71.96
2022-11-15T15:34:16.760Z,72.05
2022-11-15T15:36:47.757Z,72.14
2022-11-15T15:39:18.351Z,72.37
2022-11-15T15:41:52.265Z,72.09
2022-11-15T15:44:25.840Z,72.15
2022-11-15T15:46:58.819Z,72.22
2022-11-15T15:49:30.443Z,72.57
2022-11-15T15:52:01.042Z,72.53
2022-11-15T15:54:31.717Z,72.19
2022-11-15T15:57:02.329Z,71.88
2022-11-15T15:59:33.026Z,72.10
2022-11-15T16:02:03.729Z,72.38
2022-11-15T16:04:34.371Z,72.09
2022-11-15T16:07:05.481Z,72.57
2022-11-15T16:10:02.304Z,72.44
2022-11-15T16:12:34.242Z,72.53
2022-11-15T16:15:06.980Z,72.61
2022-11-15T16:17:43.349Z,72.33
2022-11-15T16:20:24.455Z,72.20
2022-11-15T16:22:55.095Z,72.24
2022-11-15T16:25:26.720Z,72.08
2022-11-15T16:27:57.406Z,72.08
2022-11-15T16:30:28.020Z,72.22
2022-11-15T16:32:58.617Z,72.04
2022-11-15T16:35:29.194Z,72.12
2022-11-15T16:37:59.784Z,72.08
2022-11-15T16:40:32.939Z,72.23
2022-11-15T16:43:04.556Z,72.57
2022-11-15T16:45:37.305Z,72.53
2022-11-15T16:48:08.035Z,72.39
2022-11-15T16:50:41.696Z,72.43
2022-11-15T16:53:12.602Z,72.69
2022-11-15T16:55:43.322Z,72.67
2022-11-15T16:58:14.024Z,72.55
2022-11-15T17:00:46.795Z,72.16
2022-11-15T17:03:17.554Z,72.63
2022-11-15T17:05:48.245Z,72.60
2022-11-15T17:08:22.609Z,72.59
2022-11-15T17:10:53.603Z,72.42
2022-11-15T17:13:24.352Z,72.46
2022-11-15T17:16:06.750Z,72.42
2022-11-15T17:18:38.242Z,72.63
2022-11-15T17:21:13.559Z,73.03
2022-11-15T17:23:44.569Z,72.85
2022-11-15T17:26:29.671Z,72.68
2022-11-15T17:29:02.441Z,72.74
2022-11-15T17:31:34.068Z,72.78
2022-11-15T17:34:06.091Z,72.66
2022-11-15T17:36:37.429Z,72.45
2022-11-15T17:39:08.330Z,72.22
2022-11-15T17:41:38.931Z,72.47
2022-11-15T17:44:09.618Z,72.63
2022-11-15T17:46:40.860Z,72.83
2022-11-15T17:49:11.473Z,73.06
2022-11-15T17:51:45.048Z,72.95
2022-11-15T17:54:19.444Z,73.59
2022-11-15T17:56:50.318Z,74.01
2022-11-15T17:59:21.918Z,73.68
2022-11-15T18:01:53.916Z,73.69
2022-11-15T18:04:28.212Z,73.46
2022-11-15T18:06:58.933Z,73.24
2022-11-15T18:09:29.594Z,73.29
2022-11-15T18:12:00.208Z,73.03
2022-11-15T18:14:31.032Z,73.30
2022-11-15T18:17:01.641Z,74.36
2022-11-15T18:19:32.248Z,74.33
2022-11-15T18:22:05.049Z,73.82
2022-11-15T18:24:38.941Z,74.33
2022-11-15T18:27:09.920Z,74.39
2022-11-15T18:29:40.533Z,74.55
2022-11-15T18:32:15.087Z,74.35
2022-11-15T18:34:45.943Z,74.56
2022-11-15T18:37:16.559Z,74.29
2022-11-15T18:39:52.580Z,74.05
2022-11-15T18:42:24.337Z,74.28
2022-11-15T18:44:55.330Z,74.27
2022-11-15T18:47:25.928Z,74.28
2022-11-15T18:49:58.412Z,74.20
2022-11-15T18:52:29.036Z,74.28
2022-11-15T18:54:59.644Z,74.36
2022-11-15T18:57:30.286Z,74.40
2022-11-15T19:00:00.895Z,74.28
2022-11-15T19:02:31.530Z,74.17
2022-11-15T19:05:02.242Z,74.09
2022-11-15T19:07:33.611Z,73.85
2022-11-15T19:10:04.553Z,74.13
2022-11-15T19:12:35.138Z,74.03
2022-11-15T19:15:10.125Z,74.43
2022-11-15T19:17:41.013Z,74.11
2022-11-15T19:20:12.782Z,74.08
2022-11-15T19:22:43.355Z,74.22
2022-11-15T19:25:14.487Z,73.85
2022-11-15T19:27:45.058Z,73.76
2022-11-15T19:30:16.516Z,73.57
2022-11-15T19:32:47.108Z,73.74
2022-11-15T19:35:18.801Z,73.71
2022-11-15T19:37:49.481Z,73.94
2022-11-15T19:40:20.537Z,73.87
2022-11-15T19:42:51.148Z,73.76
2022-11-15T19:45:21.747Z,73.97
2022-11-15T19:47:52.535Z,74.06
2022-11-15T19:50:23.131Z,73.71
2022-11-15T19:52:53.797Z,73.61
2022-11-15T19:55:24.424Z,74.00
2022-11-15T19:57:55.048Z,74.21
2022-11-15T20:00:25.803Z,74.12
2022-11-15T20:02:56.379Z,74.17
2022-11-15T20:05:27.098Z,74.35
2022-11-15T20:07:57.713Z,74.00
2022-11-15T20:10:28.381Z,74.05
2022-11-15T20:12:59.024Z,74.35
2022-11-15T20:15:29.626Z,74.67
2022-11-15T20:18:00.220Z,75.24
2022-11-15T20:20:31.055Z,75.40
2022-11-15T20:23:03.341Z,75.34
2022-11-15T20:25:38.023Z,74.67
2022-11-15T20:28:11.134Z,74.65
2022-11-15T20:30:43.521Z,74.54
2022-11-15T20:33:14.946Z,74.70
2022-11-15T20:35:45.600Z,74.62
2022-11-15T20:38:16.484Z,74.45
2022-11-15T20:40:49.315Z,74.06
2022-11-15T20:43:22.222Z,74.42
2022-11-15T20:45:52.821Z,74.08
2022-11-15T20:48:23.816Z,74.51
2022-11-15T20:51:03.990Z,74.76
2022-11-15T20:53:34.959Z,74.45
2022-11-15T20:56:11.837Z,74.44
2022-11-15T20:58:43.160Z,74.31
2022-11-15T21:01:16.418Z,74.25
2022-11-15T21:03:47.198Z,74.81
2022-11-15T21:06:20.853Z,75.14
2022-11-15T21:09:09.787Z,75.39
2022-11-15T21:11:58.709Z,75.77
2022-11-15T21:14:29.346Z,75.57
2022-11-15T21:17:00.288Z,75.60
2022-11-15T21:19:35.533Z,75.52
2022-11-15T21:22:09.463Z,75.38
2022-11-15T21:24:40.395Z,75.15
2022-11-15T21:27:11.015Z,74.95
2022-11-15T21:29:45.558Z,74.98
2022-11-15T21:32:16.173Z,74.95
2022-11-15T21:34:46.912Z,74.92
2022-11-15T21:37:17.592Z,74.53
2022-11-15T21:39:48.209Z,74.97
2022-11-15T21:42:18.835Z,75.00
2022-11-15T21:44:49.453Z,75.55
2022-11-15T21:47:20.440Z,75.81
2022-11-15T21:49:51.042Z,76.00
2022-11-15T21:52:21.636Z,76.06
2022-11-15T21:54:53.879Z,75.86
2022-11-15T21:57:24.721Z,75.57
2022-11-15T22:00:13.092Z,75.42
2022-11-15T22:02:43.724Z,75.48
2022-11-15T22:08:03.146Z,75.62
2022-11-15T22:10:33.947Z,75.43
2022-11-15T22:13:04.799Z,75.38
2022-11-15T22:15:35.693Z,75.49
2022-11-15T22:18:06.780Z,74.92
2022-11-15T22:20:44.414Z,75.06
2022-11-15T22:23:15.679Z,75.40
2022-11-15T22:25:46.593Z,75.00
2022-11-15T22:28:17.496Z,75.51
2022-11-15T22:30:50.061Z,75.28
2022-11-15T22:33:22.846Z,75.09
2022-11-15T22:35:53.979Z,75.28
2022-11-15T22:38:25.354Z,75.22
2022-11-15T22:40:56.689Z,75.26
2022-11-15T22:43:28.603Z,75.05
2022-11-15T22:46:01.435Z,75.26
2022-11-15T22:48:34.505Z,75.47
2022-11-15T22:51:06.901Z,75.44
2022-11-15T22:53:37.833Z,75.61
2022-11-15T22:56:09.487Z,75.33
2022-11-15T22:58:40.594Z,75.08
2022-11-15T23:01:22.706Z,75.09
2022-11-15T23:03:53.671Z,75.01
2022-11-15T23:06:24.629Z,75.42
2022-11-15T23:08:55.578Z,75.29
2022-11-15T23:11:43.880Z,75.13
2022-11-15T23:14:14.818Z,74.90
2022-11-15T23:16:46.158Z,74.85
2022-11-15T23:19:17.127Z,75.28
2022-11-15T23:22:06.080Z,75.39
2022-11-15T23:24:37.070Z,75.40
2022-11-15T23:27:08.834Z,75.68
2022-11-15T23:29:53.672Z,75.80
2022-11-15T23:32:42.450Z,75.72
2022-11-15T23:35:13.408Z,75.47
2022-11-15T23:37:44.360Z,75.59
2022-11-15T23:40:16.202Z,75.44
2022-11-15T23:42:47.113Z,75.05
2022-11-15T23:45:18.469Z,74.85
2022-11-15T23:47:49.401Z,75.27
2022-11-15T23:50:20.793Z,74.77
2022-11-15T23:52:51.767Z,74.66
2022-11-15T23:55:22.676Z,74.50
2022-11-15T23:57:53.619Z,74.27
